sensor_id;sensor_type;location;lat;lon;timestamp;pressure;altitude;pressure_sealevel;temperature;humidity
62436;BME280;48480;50.252;18.848;2023-02-17T00:02:03;99247.92;;;2.29;71.52
62436;BME280;48480;50.252;18.848;2023-02-17T00:04:31;99247.55;;;2.25;71.65
62436;BME280;48480;50.252;18.848;2023-02-17T00:06:57;99246.75;;;2.24;71.72
62436;BME280;48480;50.252;18.848;2023-02-17T00:09:23;99243.86;;;2.22;71.87
62436;BME280;48480;50.252;18.848;2023-02-17T00:11:50;99249.31;;;2.23;72.00
62436;BME280;48480;50.252;18.848;2023-02-17T00:14:17;99249.24;;;2.25;72.11
62436;BME280;48480;50.252;18.848;2023-02-17T00:16:42;99247.81;;;2.29;72.28
62436;BME280;48480;50.252;18.848;2023-02-17T00:19:09;99240.93;;;2.32;72.45
62436;BME280;48480;50.252;18.848;2023-02-17T00:24:16;99241.86;;;2.41;72.52
62436;BME280;48480;50.252;18.848;2023-02-17T00:26:42;99241.58;;;2.44;72.63
62436;BME280;48480;50.252;18.848;2023-02-17T00:29:08;99238.50;;;2.46;72.54
62436;BME280;48480;50.252;18.848;2023-02-17T00:31:33;99234.27;;;2.46;72.55
62436;BME280;48480;50.252;18.848;2023-02-17T00:33:59;99235.92;;;2.47;72.74
62436;BME280;48480;50.252;18.848;2023-02-17T00:36:25;99236.44;;;2.47;72.70
62436;BME280;48480;50.252;18.848;2023-02-17T00:38:53;99239.48;;;2.48;72.67
62436;BME280;48480;50.252;18.848;2023-02-17T00:41:19;99243.34;;;2.48;72.78
62436;BME280;48480;50.252;18.848;2023-02-17T00:43:45;99235.19;;;2.48;72.72
62436;BME280;48480;50.252;18.848;2023-02-17T00:46:11;99236.32;;;2.49;72.73
62436;BME280;48480;50.252;18.848;2023-02-17T00:48:37;99232.02;;;2.48;72.63
62436;BME280;48480;50.252;18.848;2023-02-17T00:51:02;99222.84;;;2.48;72.75
62436;BME280;48480;50.252;18.848;2023-02-17T00:53:28;99224.55;;;2.49;72.84
62436;BME280;48480;50.252;18.848;2023-02-17T00:55:53;99214.34;;;2.49;72.94
62436;BME280;48480;50.252;18.848;2023-02-17T00:58:19;99213.66;;;2.50;72.88
62436;BME280;48480;50.252;18.848;2023-02-17T01:00:44;99213.80;;;2.52;72.91
62436;BME280;48480;50.252;18.848;2023-02-17T01:03:10;99212.96;;;2.52;72.91
62436;BME280;48480;50.252;18.848;2023-02-17T01:05:42;99211.55;;;2.51;72.78
62436;BME280;48480;50.252;18.848;2023-02-17T01:08:10;99213.23;;;2.50;72.78
62436;BME280;48480;50.252;18.848;2023-02-17T01:10:37;99214.98;;;2.47;72.99
62436;BME280;48480;50.252;18.848;2023-02-17T01:13:04;99217.67;;;2.45;72.91
62436;BME280;48480;50.252;18.848;2023-02-17T01:15:30;99219.15;;;2.45;73.00
62436;BME280;48480;50.252;18.848;2023-02-17T01:17:57;99211.92;;;2.44;73.03
62436;BME280;48480;50.252;18.848;2023-02-17T01:20:23;99211.56;;;2.45;73.00
62436;BME280;48480;50.252;18.848;2023-02-17T01:22:48;99214.70;;;2.45;72.90
62436;BME280;48480;50.252;18.848;2023-02-17T01:25:14;99215.45;;;2.43;72.77
62436;BME280;48480;50.252;18.848;2023-02-17T01:27:39;99205.90;;;2.40;72.81
62436;BME280;48480;50.252;18.848;2023-02-17T01:30:05;99204.61;;;2.40;72.76
62436;BME280;48480;50.252;18.848;2023-02-17T01:32:31;99205.95;;;2.38;72.82
62436;BME280;48480;50.252;18.848;2023-02-17T01:34:56;99204.57;;;2.37;72.74
62436;BME280;48480;50.252;18.848;2023-02-17T01:37:22;99202.27;;;2.32;72.70
62436;BME280;48480;50.252;18.848;2023-02-17T01:39:47;99197.29;;;2.31;72.79
62436;BME280;48480;50.252;18.848;2023-02-17T01:42:18;99199.77;;;2.30;72.69
62436;BME280;48480;50.252;18.848;2023-02-17T01:48:13;99203.22;;;2.24;72.83
62436;BME280;48480;50.252;18.848;2023-02-17T01:50:45;99206.27;;;2.19;72.63
62436;BME280;48480;50.252;18.848;2023-02-17T01:53:17;99203.13;;;2.14;72.65
62436;BME280;48480;50.252;18.848;2023-02-17T01:55:44;99200.85;;;2.11;72.66
62436;BME280;48480;50.252;18.848;2023-02-17T01:58:13;99193.77;;;2.01;72.68
62436;BME280;48480;50.252;18.848;2023-02-17T02:00:41;99197.29;;;2.03;72.64
62436;BME280;48480;50.252;18.848;2023-02-17T02:03:09;99193.17;;;2.00;72.82
62436;BME280;48480;50.252;18.848;2023-02-17T02:05:38;99196.38;;;2.02;72.89
62436;BME280;48480;50.252;18.848;2023-02-17T02:08:04;99192.37;;;2.00;72.99
62436;BME280;48480;50.252;18.848;2023-02-17T02:10:30;99190.39;;;1.99;73.05
62436;BME280;48480;50.252;18.848;2023-02-17T02:12:56;99190.19;;;1.99;73.26
62436;BME280;48480;50.252;18.848;2023-02-17T02:15:24;99194.63;;;1.99;73.26
62436;BME280;48480;50.252;18.848;2023-02-17T02:34:19;99169.70;;;2.03;73.41
62436;BME280;48480;50.252;18.848;2023-02-17T02:36:55;99170.41;;;2.04;73.55
62436;BME280;48480;50.252;18.848;2023-02-17T02:39:31;99163.17;;;2.05;73.69
62436;BME280;48480;50.252;18.848;2023-02-17T02:42:01;99153.78;;;2.07;73.78
62436;BME280;48480;50.252;18.848;2023-02-17T02:44:29;99153.86;;;2.09;73.85
62436;BME280;48480;50.252;18.848;2023-02-17T02:49:51;99147.80;;;2.15;73.88
62436;BME280;48480;50.252;18.848;2023-02-17T02:52:29;99144.38;;;2.19;73.92
62436;BME280;48480;50.252;18.848;2023-02-17T02:55:02;99149.81;;;2.24;73.96
62436;BME280;48480;50.252;18.848;2023-02-17T03:02:43;99157.59;;;2.29;74.19
62436;BME280;48480;50.252;18.848;2023-02-17T03:10:23;99157.20;;;2.35;73.96
62436;BME280;48480;50.252;18.848;2023-02-17T03:12:49;99148.91;;;2.37;73.92
62436;BME280;48480;50.252;18.848;2023-02-17T03:15:19;99148.86;;;2.41;73.72
62436;BME280;48480;50.252;18.848;2023-02-17T03:17:46;99148.94;;;2.42;73.61
62436;BME280;48480;50.252;18.848;2023-02-17T03:20:13;99139.52;;;2.44;73.65
62436;BME280;48480;50.252;18.848;2023-02-17T03:22:42;99138.90;;;2.45;73.58
62436;BME280;48480;50.252;18.848;2023-02-17T03:25:09;99134.75;;;2.47;73.41
62436;BME280;48480;50.252;18.848;2023-02-17T03:27:34;99143.70;;;2.51;73.44
62436;BME280;48480;50.252;18.848;2023-02-17T03:30:00;99141.98;;;2.54;73.39
62436;BME280;48480;50.252;18.848;2023-02-17T03:32:25;99137.62;;;2.57;73.48
62436;BME280;48480;50.252;18.848;2023-02-17T03:34:51;99131.93;;;2.59;73.37
62436;BME280;48480;50.252;18.848;2023-02-17T03:37:17;99126.41;;;2.62;73.37
62436;BME280;48480;50.252;18.848;2023-02-17T03:39:43;99135.14;;;2.62;73.21
62436;BME280;48480;50.252;18.848;2023-02-17T03:42:09;99136.47;;;2.62;73.24
62436;BME280;48480;50.252;18.848;2023-02-17T03:44:35;99132.42;;;2.61;73.24
62436;BME280;48480;50.252;18.848;2023-02-17T03:47:00;99131.60;;;2.62;73.44
62436;BME280;48480;50.252;18.848;2023-02-17T03:49:26;99130.42;;;2.65;73.52
62436;BME280;48480;50.252;18.848;2023-02-17T03:51:51;99130.83;;;2.68;73.51
62436;BME280;48480;50.252;18.848;2023-02-17T03:54:17;99124.33;;;2.70;73.54
62436;BME280;48480;50.252;18.848;2023-02-17T03:56:42;99120.88;;;2.74;73.49
62436;BME280;48480;50.252;18.848;2023-02-17T03:59:08;99121.13;;;2.78;73.45
62436;BME280;48480;50.252;18.848;2023-02-17T04:01:33;99120.02;;;2.82;73.44
62436;BME280;48480;50.252;18.848;2023-02-17T04:03:59;99121.14;;;2.84;73.39
62436;BME280;48480;50.252;18.848;2023-02-17T04:06:24;99120.48;;;2.86;73.45
62436;BME280;48480;50.252;18.848;2023-02-17T04:08:50;99116.25;;;2.86;73.51
62436;BME280;48480;50.252;18.848;2023-02-17T04:11:16;99114.58;;;2.88;73.43
62436;BME280;48480;50.252;18.848;2023-02-17T04:13:41;99111.22;;;2.91;73.50
62436;BME280;48480;50.252;18.848;2023-02-17T04:16:08;99115.95;;;2.94;73.42
62436;BME280;48480;50.252;18.848;2023-02-17T04:18:34;99113.34;;;2.97;73.40
62436;BME280;48480;50.252;18.848;2023-02-17T04:21:00;99110.98;;;3.00;73.45
62436;BME280;48480;50.252;18.848;2023-02-17T04:23:26;99107.66;;;3.01;73.36
62436;BME280;48480;50.252;18.848;2023-02-17T04:25:52;99105.72;;;3.03;73.27
62436;BME280;48480;50.252;18.848;2023-02-17T04:28:17;99106.00;;;3.04;73.32
62436;BME280;48480;50.252;18.848;2023-02-17T04:30:44;99105.54;;;3.07;73.44
62436;BME280;48480;50.252;18.848;2023-02-17T04:33:10;99109.63;;;3.07;73.35
62436;BME280;48480;50.252;18.848;2023-02-17T04:35:36;99108.63;;;3.07;73.50
62436;BME280;48480;50.252;18.848;2023-02-17T04:38:01;99109.30;;;3.11;73.60
62436;BME280;48480;50.252;18.848;2023-02-17T04:40:27;99102.10;;;3.13;73.46
62436;BME280;48480;50.252;18.848;2023-02-17T04:42:52;99101.52;;;3.13;73.60
62436;BME280;48480;50.252;18.848;2023-02-17T04:45:19;99100.76;;;3.15;73.55
62436;BME280;48480;50.252;18.848;2023-02-17T04:47:45;99102.58;;;3.17;73.64
62436;BME280;48480;50.252;18.848;2023-02-17T04:50:11;99097.14;;;3.21;73.68
62436;BME280;48480;50.252;18.848;2023-02-17T04:52:37;99089.45;;;3.21;73.64
62436;BME280;48480;50.252;18.848;2023-02-17T04:55:03;99086.70;;;3.27;73.72
62436;BME280;48480;50.252;18.848;2023-02-17T04:57:29;99089.54;;;3.30;73.57
62436;BME280;48480;50.252;18.848;2023-02-17T04:59:55;99093.21;;;3.32;73.63
62436;BME280;48480;50.252;18.848;2023-02-17T05:02:20;99079.07;;;3.35;73.62
62436;BME280;48480;50.252;18.848;2023-02-17T05:04:45;99070.40;;;3.37;73.55
62436;BME280;48480;50.252;18.848;2023-02-17T05:07:11;99061.55;;;3.36;73.54
62436;BME280;48480;50.252;18.848;2023-02-17T05:09:37;99058.74;;;3.39;73.57
62436;BME280;48480;50.252;18.848;2023-02-17T05:12:02;99047.17;;;3.38;73.42
62436;BME280;48480;50.252;18.848;2023-02-17T05:14:30;99054.42;;;3.42;73.35
62436;BME280;48480;50.252;18.848;2023-02-17T05:16:56;99056.60;;;3.42;73.47
62436;BME280;48480;50.252;18.848;2023-02-17T05:19:21;99067.49;;;3.44;73.49
62436;BME280;48480;50.252;18.848;2023-02-17T05:21:47;99063.20;;;3.45;73.61
62436;BME280;48480;50.252;18.848;2023-02-17T05:24:13;99060.05;;;3.48;73.71
62436;BME280;48480;50.252;18.848;2023-02-17T05:26:38;99061.25;;;3.55;73.61
62436;BME280;48480;50.252;18.848;2023-02-17T05:29:03;99066.02;;;3.59;73.60
62436;BME280;48480;50.252;18.848;2023-02-17T05:31:29;99063.92;;;3.64;73.50
62436;BME280;48480;50.252;18.848;2023-02-17T05:33:54;99062.59;;;3.65;73.40
62436;BME280;48480;50.252;18.848;2023-02-17T05:36:20;99060.31;;;3.66;73.41
62436;BME280;48480;50.252;18.848;2023-02-17T05:38:46;99043.63;;;3.53;73.38
62436;BME280;48480;50.252;18.848;2023-02-17T05:41:16;99065.13;;;3.63;73.42
62436;BME280;48480;50.252;18.848;2023-02-17T05:43:42;99063.73;;;3.61;73.59
62436;BME280;48480;50.252;18.848;2023-02-17T05:46:08;99064.11;;;3.62;73.59
62436;BME280;48480;50.252;18.848;2023-02-17T05:48:33;99062.90;;;3.62;73.66
62436;BME280;48480;50.252;18.848;2023-02-17T05:50:59;99058.13;;;3.62;73.64
62436;BME280;48480;50.252;18.848;2023-02-17T05:53:25;99058.48;;;3.61;73.69
62436;BME280;48480;50.252;18.848;2023-02-17T05:55:51;99056.65;;;3.63;73.77
62436;BME280;48480;50.252;18.848;2023-02-17T05:58:16;99060.41;;;3.64;73.77
62436;BME280;48480;50.252;18.848;2023-02-17T06:00:42;99053.48;;;3.65;73.80
62436;BME280;48480;50.252;18.848;2023-02-17T06:03:11;99054.55;;;3.67;73.78
62436;BME280;48480;50.252;18.848;2023-02-17T06:05:37;99057.16;;;3.68;73.82
62436;BME280;48480;50.252;18.848;2023-02-17T06:08:03;99051.34;;;3.71;73.88
62436;BME280;48480;50.252;18.848;2023-02-17T06:10:28;99046.62;;;3.72;73.87
62436;BME280;48480;50.252;18.848;2023-02-17T06:12:53;99042.46;;;3.70;73.95
62436;BME280;48480;50.252;18.848;2023-02-17T06:15:19;99040.92;;;3.71;73.87
62436;BME280;48480;50.252;18.848;2023-02-17T06:17:45;99038.72;;;3.73;73.95
62436;BME280;48480;50.252;18.848;2023-02-17T06:20:10;99035.33;;;3.74;73.88
62436;BME280;48480;50.252;18.848;2023-02-17T06:22:36;99033.98;;;3.77;74.08
62436;BME280;48480;50.252;18.848;2023-02-17T06:25:01;99031.01;;;3.78;73.97
62436;BME280;48480;50.252;18.848;2023-02-17T06:27:27;99029.64;;;3.80;73.82
62436;BME280;48480;50.252;18.848;2023-02-17T06:29:52;99028.23;;;3.83;73.83
62436;BME280;48480;50.252;18.848;2023-02-17T06:32:18;99029.17;;;3.85;73.83
62436;BME280;48480;50.252;18.848;2023-02-17T06:34:44;99030.21;;;3.87;73.75
62436;BME280;48480;50.252;18.848;2023-02-17T06:37:09;99027.80;;;3.94;73.69
62436;BME280;48480;50.252;18.848;2023-02-17T06:39:34;99021.42;;;4.00;73.72
62436;BME280;48480;50.252;18.848;2023-02-17T06:42:00;99023.56;;;4.05;73.57
62436;BME280;48480;50.252;18.848;2023-02-17T06:44:34;99016.79;;;4.11;73.48
62436;BME280;48480;50.252;18.848;2023-02-17T06:47:00;99013.04;;;4.16;73.19
62436;BME280;48480;50.252;18.848;2023-02-17T06:49:29;99015.23;;;4.20;73.19
62436;BME280;48480;50.252;18.848;2023-02-17T06:51:54;99017.86;;;4.26;73.19
62436;BME280;48480;50.252;18.848;2023-02-17T06:54:20;99024.20;;;4.31;72.98
62436;BME280;48480;50.252;18.848;2023-02-17T06:56:45;99022.42;;;4.36;73.08
62436;BME280;48480;50.252;18.848;2023-02-17T06:59:12;99016.55;;;4.43;72.81
62436;BME280;48480;50.252;18.848;2023-02-17T07:01:38;99011.83;;;4.46;72.76
62436;BME280;48480;50.252;18.848;2023-02-17T07:04:04;99012.64;;;4.52;72.61
62436;BME280;48480;50.252;18.848;2023-02-17T07:06:30;99007.02;;;4.57;72.52
62436;BME280;48480;50.252;18.848;2023-02-17T07:08:56;99016.17;;;4.62;72.35
62436;BME280;48480;50.252;18.848;2023-02-17T07:11:31;98975.06;;;4.42;72.30
62436;BME280;48480;50.252;18.848;2023-02-17T07:13:58;99016.14;;;4.75;72.29
62436;BME280;48480;50.252;18.848;2023-02-17T07:16:24;99021.69;;;4.83;72.22
62436;BME280;48480;50.252;18.848;2023-02-17T07:18:50;99022.77;;;4.90;72.00
62436;BME280;48480;50.252;18.848;2023-02-17T07:21:16;99021.91;;;4.95;71.84
62436;BME280;48480;50.252;18.848;2023-02-17T07:23:42;99020.70;;;5.01;71.88
62436;BME280;48480;50.252;18.848;2023-02-17T07:26:10;99017.41;;;5.09;71.76
62436;BME280;48480;50.252;18.848;2023-02-17T07:28:38;99011.83;;;5.17;71.64
62436;BME280;48480;50.252;18.848;2023-02-17T07:31:08;99012.85;;;5.25;71.37
62436;BME280;48480;50.252;18.848;2023-02-17T07:33:35;99021.56;;;5.31;71.13
62436;BME280;48480;50.252;18.848;2023-02-17T07:36:07;99020.02;;;5.36;70.94
62436;BME280;48480;50.252;18.848;2023-02-17T07:38:33;99024.06;;;5.39;70.81
62436;BME280;48480;50.252;18.848;2023-02-17T07:41:10;99016.40;;;5.36;70.61
62436;BME280;48480;50.252;18.848;2023-02-17T07:43:36;99024.48;;;5.43;70.59
62436;BME280;48480;50.252;18.848;2023-02-17T07:46:02;99021.99;;;5.44;70.58
62436;BME280;48480;50.252;18.848;2023-02-17T07:48:28;99010.65;;;5.45;70.34
62436;BME280;48480;50.252;18.848;2023-02-17T07:50:56;99003.41;;;5.46;70.36
62436;BME280;48480;50.252;18.848;2023-02-17T07:53:22;99001.07;;;5.47;70.31
62436;BME280;48480;50.252;18.848;2023-02-17T07:55:48;99002.77;;;5.50;70.39
62436;BME280;48480;50.252;18.848;2023-02-17T07:58:13;99008.35;;;5.52;70.28
62436;BME280;48480;50.252;18.848;2023-02-17T08:00:39;99007.71;;;5.52;70.20
62436;BME280;48480;50.252;18.848;2023-02-17T08:03:05;99002.60;;;5.52;70.16
62436;BME280;48480;50.252;18.848;2023-02-17T08:05:30;98994.48;;;5.49;69.76
62436;BME280;48480;50.252;18.848;2023-02-17T08:07:56;98992.77;;;5.49;69.71
62436;BME280;48480;50.252;18.848;2023-02-17T08:10:40;98993.25;;;5.46;69.85
62436;BME280;48480;50.252;18.848;2023-02-17T08:13:26;98988.31;;;5.45;70.01
62436;BME280;48480;50.252;18.848;2023-02-17T08:15:52;98986.12;;;5.44;70.06
62436;BME280;48480;50.252;18.848;2023-02-17T08:18:17;98989.00;;;5.44;70.01
62436;BME280;48480;50.252;18.848;2023-02-17T08:20:43;98984.09;;;5.41;69.92
62436;BME280;48480;50.252;18.848;2023-02-17T08:23:08;98980.76;;;5.39;70.20
62436;BME280;48480;50.252;18.848;2023-02-17T08:25:35;98982.88;;;5.40;70.33
62436;BME280;48480;50.252;18.848;2023-02-17T08:28:03;98980.29;;;5.38;70.68
62436;BME280;48480;50.252;18.848;2023-02-17T08:30:29;98978.89;;;5.35;71.01
62436;BME280;48480;50.252;18.848;2023-02-17T08:32:56;98978.52;;;5.31;71.37
62436;BME280;48480;50.252;18.848;2023-02-17T08:35:21;98978.31;;;5.28;71.78
62436;BME280;48480;50.252;18.848;2023-02-17T08:37:49;98989.06;;;5.25;71.97
62436;BME280;48480;50.252;18.848;2023-02-17T08:40:16;98990.55;;;5.25;72.17
62436;BME280;48480;50.252;18.848;2023-02-17T08:42:43;98985.08;;;5.24;72.40
62436;BME280;48480;50.252;18.848;2023-02-17T08:45:11;98984.02;;;5.25;72.57
62436;BME280;48480;50.252;18.848;2023-02-17T08:47:37;98986.51;;;5.27;72.70
62436;BME280;48480;50.252;18.848;2023-02-17T08:50:04;98982.57;;;5.31;73.02
62436;BME280;48480;50.252;18.848;2023-02-17T08:52:30;98974.36;;;5.37;72.97
62436;BME280;48480;50.252;18.848;2023-02-17T08:54:56;98973.35;;;5.40;72.97
62436;BME280;48480;50.252;18.848;2023-02-17T08:57:22;98979.73;;;5.45;72.91
62436;BME280;48480;50.252;18.848;2023-02-17T08:59:48;98981.16;;;5.51;72.98
62436;BME280;48480;50.252;18.848;2023-02-17T09:02:18;98977.64;;;5.57;72.67
62436;BME280;48480;50.252;18.848;2023-02-17T09:04:43;98979.44;;;5.61;72.47
62436;BME280;48480;50.252;18.848;2023-02-17T09:07:11;98988.59;;;5.64;72.53
62436;BME280;48480;50.252;18.848;2023-02-17T09:09:38;98995.34;;;5.65;72.18
62436;BME280;48480;50.252;18.848;2023-02-17T09:12:04;98997.68;;;5.65;72.03
62436;BME280;48480;50.252;18.848;2023-02-17T09:14:30;98989.00;;;5.64;72.11
62436;BME280;48480;50.252;18.848;2023-02-17T09:16:56;98989.76;;;5.62;72.16
62436;BME280;48480;50.252;18.848;2023-02-17T09:19:23;98986.79;;;5.60;72.54
62436;BME280;48480;50.252;18.848;2023-02-17T09:21:49;98983.75;;;5.58;73.11
62436;BME280;48480;50.252;18.848;2023-02-17T09:24:15;98976.73;;;5.57;73.58
62436;BME280;48480;50.252;18.848;2023-02-17T09:26:52;98974.86;;;5.58;73.90
62436;BME280;48480;50.252;18.848;2023-02-17T09:29:18;98978.98;;;5.57;74.24
62436;BME280;48480;50.252;18.848;2023-02-17T09:31:44;98974.30;;;5.54;74.43
62436;BME280;48480;50.252;18.848;2023-02-17T09:34:10;98971.90;;;5.52;74.54
62436;BME280;48480;50.252;18.848;2023-02-17T09:36:39;98966.36;;;5.49;74.87
62436;BME280;48480;50.252;18.848;2023-02-17T09:39:06;98949.40;;;5.44;75.13
62436;BME280;48480;50.252;18.848;2023-02-17T09:41:41;98921.29;;;5.26;75.26
62436;BME280;48480;50.252;18.848;2023-02-17T09:44:24;98955.40;;;5.51;75.44
62436;BME280;48480;50.252;18.848;2023-02-17T09:47:04;98955.25;;;5.45;75.63
62436;BME280;48480;50.252;18.848;2023-02-17T09:49:39;98957.75;;;5.45;76.08
62436;BME280;48480;50.252;18.848;2023-02-17T09:55:12;98963.24;;;5.44;76.50
62436;BME280;48480;50.252;18.848;2023-02-17T10:00:44;98971.85;;;5.41;76.55
62436;BME280;48480;50.252;18.848;2023-02-17T10:05:52;98970.69;;;5.41;76.86
62436;BME280;48480;50.252;18.848;2023-02-17T10:08:27;98967.66;;;5.40;76.48
62436;BME280;48480;50.252;18.848;2023-02-17T10:11:07;98967.71;;;5.39;76.52
62436;BME280;48480;50.252;18.848;2023-02-17T10:13:36;98969.36;;;5.39;76.53
62436;BME280;48480;50.252;18.848;2023-02-17T10:16:10;98962.70;;;5.40;76.55
62436;BME280;48480;50.252;18.848;2023-02-17T10:19:01;98954.67;;;5.42;76.34
62436;BME280;48480;50.252;18.848;2023-02-17T10:21:37;98957.88;;;5.44;76.30
62436;BME280;48480;50.252;18.848;2023-02-17T10:24:05;98959.66;;;5.47;76.27
62436;BME280;48480;50.252;18.848;2023-02-17T10:29:30;98956.73;;;5.49;75.91
62436;BME280;48480;50.252;18.848;2023-02-17T10:35:16;98941.25;;;5.50;75.90
62436;BME280;48480;50.252;18.848;2023-02-17T10:40:25;98929.32;;;5.53;75.89
62436;BME280;48480;50.252;18.848;2023-02-17T10:42:55;98923.40;;;5.54;75.84
62436;BME280;48480;50.252;18.848;2023-02-17T10:48:00;98914.67;;;5.61;76.25
62436;BME280;48480;50.252;18.848;2023-02-17T10:50:32;98914.96;;;5.65;76.37
62436;BME280;48480;50.252;18.848;2023-02-17T10:52:59;98911.60;;;5.68;76.46
62436;BME280;48480;50.252;18.848;2023-02-17T10:58:23;98903.71;;;5.72;76.36
62436;BME280;48480;50.252;18.848;2023-02-17T11:00:53;98898.67;;;5.76;76.57
62436;BME280;48480;50.252;18.848;2023-02-17T11:03:24;98893.20;;;5.78;75.84
62436;BME280;48480;50.252;18.848;2023-02-17T11:06:02;98848.23;;;5.60;75.46
62436;BME280;48480;50.252;18.848;2023-02-17T11:11:06;98865.63;;;5.78;75.57
62436;BME280;48480;50.252;18.848;2023-02-17T11:16:26;98842.66;;;5.81;75.04
62436;BME280;48480;50.252;18.848;2023-02-17T11:18:54;98839.55;;;5.83;74.90
62436;BME280;48480;50.252;18.848;2023-02-17T11:21:20;98831.13;;;5.86;75.00
62436;BME280;48480;50.252;18.848;2023-02-17T11:24:02;98837.16;;;5.94;75.06
62436;BME280;48480;50.252;18.848;2023-02-17T11:26:32;98824.79;;;6.00;74.82
62436;BME280;48480;50.252;18.848;2023-02-17T11:29:16;98829.36;;;6.01;74.59
62436;BME280;48480;50.252;18.848;2023-02-17T11:31:55;98828.45;;;6.03;74.49
62436;BME280;48480;50.252;18.848;2023-02-17T11:34:24;98821.89;;;6.05;74.59
62436;BME280;48480;50.252;18.848;2023-02-17T11:37:20;98823.38;;;6.05;74.57
62436;BME280;48480;50.252;18.848;2023-02-17T11:39:51;98817.63;;;6.05;74.66
62436;BME280;48480;50.252;18.848;2023-02-17T11:44:50;98820.34;;;6.05;74.75
62436;BME280;48480;50.252;18.848;2023-02-17T11:50:21;98808.69;;;6.02;74.81
62436;BME280;48480;50.252;18.848;2023-02-17T11:53:19;98806.42;;;5.99;75.13
62436;BME280;48480;50.252;18.848;2023-02-17T11:56:17;98801.89;;;6.00;75.40
62436;BME280;48480;50.252;18.848;2023-02-17T11:59:21;98798.54;;;6.01;75.45
62436;BME280;48480;50.252;18.848;2023-02-17T12:10:01;98783.30;;;6.08;75.83
62436;BME280;48480;50.252;18.848;2023-02-17T12:29:10;98769.59;;;6.12;75.72
62436;BME280;48480;50.252;18.848;2023-02-17T12:32:13;98770.80;;;6.14;75.64
62436;BME280;48480;50.252;18.848;2023-02-17T12:34:54;98767.48;;;6.13;75.60
62436;BME280;48480;50.252;18.848;2023-02-17T12:37:47;98756.30;;;6.14;75.60
62436;BME280;48480;50.252;18.848;2023-02-17T12:40:51;98753.84;;;6.15;75.59
62436;BME280;48480;50.252;18.848;2023-02-17T12:43:24;98755.91;;;6.16;75.68
62436;BME280;48480;50.252;18.848;2023-02-17T12:45:51;98745.58;;;6.17;75.61
62436;BME280;48480;50.252;18.848;2023-02-17T12:48:27;98746.91;;;6.17;75.75
62436;BME280;48480;50.252;18.848;2023-02-17T12:51:04;98729.15;;;6.12;75.69
62436;BME280;48480;50.252;18.848;2023-02-17T12:53:48;98735.66;;;6.16;75.76
62436;BME280;48480;50.252;18.848;2023-02-17T12:59:12;98721.30;;;6.20;75.89
62436;BME280;48480;50.252;18.848;2023-02-17T13:01:53;98718.20;;;6.21;76.05
62436;BME280;48480;50.252;18.848;2023-02-17T13:10:03;98696.75;;;6.31;76.22
62436;BME280;48480;50.252;18.848;2023-02-17T13:12:53;98690.08;;;6.34;76.36
62436;BME280;48480;50.252;18.848;2023-02-17T13:15:40;98689.77;;;6.37;76.41
62436;BME280;48480;50.252;18.848;2023-02-17T13:21:13;98674.47;;;6.48;76.43
62436;BME280;48480;50.252;18.848;2023-02-17T13:26:44;98672.42;;;6.60;76.34
62436;BME280;48480;50.252;18.848;2023-02-17T13:29:18;98664.83;;;6.67;76.32
62436;BME280;48480;50.252;18.848;2023-02-17T13:32:09;98655.13;;;6.72;76.15
62436;BME280;48480;50.252;18.848;2023-02-17T13:34:37;98652.20;;;6.76;76.00
62436;BME280;48480;50.252;18.848;2023-02-17T13:37:24;98650.44;;;6.76;75.90
62436;BME280;48480;50.252;18.848;2023-02-17T13:39:52;98653.05;;;6.76;75.85
62436;BME280;48480;50.252;18.848;2023-02-17T13:42:39;98652.52;;;6.76;75.92
62436;BME280;48480;50.252;18.848;2023-02-17T13:50:53;98632.96;;;6.80;75.60
62436;BME280;48480;50.252;18.848;2023-02-17T13:53:34;98634.29;;;6.80;75.60
62436;BME280;48480;50.252;18.848;2023-02-17T13:56:04;98634.05;;;6.81;75.60
62436;BME280;48480;50.252;18.848;2023-02-17T13:58:35;98630.12;;;6.81;75.50
62436;BME280;48480;50.252;18.848;2023-02-17T14:01:03;98631.85;;;6.78;75.65
62436;BME280;48480;50.252;18.848;2023-02-17T14:06:06;98620.80;;;6.75;75.82
62436;BME280;48480;50.252;18.848;2023-02-17T14:36:43;98585.27;;;6.76;76.85
62436;BME280;48480;50.252;18.848;2023-02-17T15:09:12;98544.34;;;6.46;79.66
62436;BME280;48480;50.252;18.848;2023-02-17T15:11:39;98494.61;;;6.18;79.71
62436;BME280;48480;50.252;18.848;2023-02-17T15:14:12;98532.42;;;6.44;79.77
62436;BME280;48480;50.252;18.848;2023-02-17T15:16:39;98522.86;;;6.42;79.86
62436;BME280;48480;50.252;18.848;2023-02-17T15:19:04;98519.45;;;6.41;79.90
62436;BME280;48480;50.252;18.848;2023-02-17T15:21:32;98521.13;;;6.40;79.92
62436;BME280;48480;50.252;18.848;2023-02-17T15:24:00;98515.33;;;6.39;79.96
62436;BME280;48480;50.252;18.848;2023-02-17T15:26:27;98506.38;;;6.39;80.00
62436;BME280;48480;50.252;18.848;2023-02-17T15:28:55;98497.59;;;6.38;79.96
62436;BME280;48480;50.252;18.848;2023-02-17T15:31:28;98488.96;;;6.38;79.97
62436;BME280;48480;50.252;18.848;2023-02-17T15:34:12;98493.44;;;6.38;79.95
62436;BME280;48480;50.252;18.848;2023-02-17T15:36:38;98489.73;;;6.39;79.86
62436;BME280;48480;50.252;18.848;2023-02-17T15:39:04;98466.52;;;6.31;79.73
62436;BME280;48480;50.252;18.848;2023-02-17T15:41:32;98481.38;;;6.43;79.70
62436;BME280;48480;50.252;18.848;2023-02-17T15:44:00;98476.52;;;6.45;79.76
62436;BME280;48480;50.252;18.848;2023-02-17T15:46:30;98471.81;;;6.46;79.73
62436;BME280;48480;50.252;18.848;2023-02-17T15:48:56;98461.65;;;6.48;79.68
62436;BME280;48480;50.252;18.848;2023-02-17T15:51:21;98462.89;;;6.51;79.56
62436;BME280;48480;50.252;18.848;2023-02-17T15:53:49;98458.80;;;6.54;79.56
62436;BME280;48480;50.252;18.848;2023-02-17T15:56:17;98457.00;;;6.56;79.49
62436;BME280;48480;50.252;18.848;2023-02-17T15:58:44;98445.63;;;6.51;79.47
62436;BME280;48480;50.252;18.848;2023-02-17T16:01:16;98459.14;;;6.63;79.52
62436;BME280;48480;50.252;18.848;2023-02-17T16:03:47;98457.96;;;6.67;79.47
62436;BME280;48480;50.252;18.848;2023-02-17T16:06:13;98456.98;;;6.70;79.58